sensor_id;sensor_type;location;lat;lon;timestamp;P1;durP1;ratioP1;P2;durP2;ratioP2
1204;SDS011;592;48.764;9.174;2023-05-14T00:01:03;13.30;;;10.20;;
1204;SDS011;592;48.764;9.174;2023-05-14T00:03:32;11.80;;;10.07;;
1204;SDS011;592;48.764;9.174;2023-05-14T00:05:59;11.40;;;9.73;;
1204;SDS011;592;48.764;9.174;2023-05-14T00:08:25;12.37;;;10.10;;
1204;SDS011;592;48.764;9.174;2023-05-14T00:10:53;12.60;;;10.97;;
1204;SDS011;592;48.764;9.174;2023-05-14T00:13:19;11.70;;;10.20;;
1204;SDS011;592;48.764;9.174;2023-05-14T00:15:46;11.20;;;9.63;;
1204;SDS011;592;48.764;9.174;2023-05-14T00:18:14;15.60;;;10.70;;
1204;SDS011;592;48.764;9.174;2023-05-14T00:20:41;13.83;;;11.50;;
1204;SDS011;592;48.764;9.174;2023-05-14T00:23:07;14.87;;;10.67;;
1204;SDS011;592;48.764;9.174;2023-05-14T00:25:34;12.03;;;10.67;;
1204;SDS011;592;48.764;9.174;2023-05-14T00:28:01;13.60;;;10.87;;
1204;SDS011;592;48.764;9.174;2023-05-14T00:30:28;11.73;;;10.03;;
1204;SDS011;592;48.764;9.174;2023-05-14T00:32:55;11.80;;;9.60;;
1204;SDS011;592;48.764;9.174;2023-05-14T00:35:23;11.57;;;10.03;;
1204;SDS011;592;48.764;9.174;2023-05-14T00:37:50;13.03;;;11.23;;
1204;SDS011;592;48.764;9.174;2023-05-14T00:40:16;13.57;;;10.30;;
1204;SDS011;592;48.764;9.174;2023-05-14T00:42:43;12.17;;;10.30;;
1204;SDS011;592;48.764;9.174;2023-05-14T00:45:10;13.33;;;10.87;;
1204;SDS011;592;48.764;9.174;2023-05-14T00:47:36;12.53;;;10.80;;
1204;SDS011;592;48.764;9.174;2023-05-14T00:50:04;12.07;;;10.57;;
1204;SDS011;592;48.764;9.174;2023-05-14T00:52:33;13.40;;;10.40;;
1204;SDS011;592;48.764;9.174;2023-05-14T00:55:00;14.70;;;10.93;;
1204;SDS011;592;48.764;9.174;2023-05-14T00:57:29;11.13;;;9.93;;
1204;SDS011;592;48.764;9.174;2023-05-14T00:59:55;12.70;;;10.93;;
1204;SDS011;592;48.764;9.174;2023-05-14T01:02:23;14.20;;;11.70;;
1204;SDS011;592;48.764;9.174;2023-05-14T01:04:50;13.53;;;10.67;;
1204;SDS011;592;48.764;9.174;2023-05-14T01:07:19;13.33;;;11.00;;
1204;SDS011;592;48.764;9.174;2023-05-14T01:09:57;13.87;;;11.00;;
1204;SDS011;592;48.764;9.174;2023-05-14T01:12:28;13.50;;;11.23;;
1204;SDS011;592;48.764;9.174;2023-05-14T01:15:04;13.60;;;10.93;;
1204;SDS011;592;48.764;9.174;2023-05-14T01:17:38;13.90;;;11.43;;
1204;SDS011;592;48.764;9.174;2023-05-14T01:20:08;13.43;;;11.93;;
1204;SDS011;592;48.764;9.174;2023-05-14T01:22:37;14.70;;;11.80;;
1204;SDS011;592;48.764;9.174;2023-05-14T01:25:04;12.97;;;11.20;;
1204;SDS011;592;48.764;9.174;2023-05-14T01:27:34;12.23;;;10.33;;
1204;SDS011;592;48.764;9.174;2023-05-14T01:30:08;13.30;;;10.70;;
1204;SDS011;592;48.764;9.174;2023-05-14T01:32:38;17.10;;;12.07;;
1204;SDS011;592;48.764;9.174;2023-05-14T01:35:06;13.70;;;10.50;;
1204;SDS011;592;48.764;9.174;2023-05-14T01:37:34;15.27;;;11.50;;
1204;SDS011;592;48.764;9.174;2023-05-14T01:40:05;12.00;;;10.57;;
1204;SDS011;592;48.764;9.174;2023-05-14T01:42:34;15.77;;;11.57;;
1204;SDS011;592;48.764;9.174;2023-05-14T01:45:01;12.33;;;10.60;;
1204;SDS011;592;48.764;9.174;2023-05-14T01:47:27;14.20;;;11.70;;
1204;SDS011;592;48.764;9.174;2023-05-14T01:49:54;17.33;;;11.40;;
1204;SDS011;592;48.764;9.174;2023-05-14T01:52:21;12.43;;;10.50;;
1204;SDS011;592;48.764;9.174;2023-05-14T01:54:48;12.53;;;11.23;;
1204;SDS011;592;48.764;9.174;2023-05-14T01:57:16;15.90;;;11.57;;
1204;SDS011;592;48.764;9.174;2023-05-14T01:59:43;14.77;;;11.47;;
1204;SDS011;592;48.764;9.174;2023-05-14T02:02:09;13.93;;;11.13;;
1204;SDS011;592;48.764;9.174;2023-05-14T02:04:36;13.63;;;11.07;;
1204;SDS011;592;48.764;9.174;2023-05-14T02:07:03;14.53;;;11.60;;
1204;SDS011;592;48.764;9.174;2023-05-14T02:09:30;13.57;;;11.87;;
1204;SDS011;592;48.764;9.174;2023-05-14T02:11:56;12.10;;;10.77;;
1204;SDS011;592;48.764;9.174;2023-05-14T02:14:24;13.13;;;11.40;;
1204;SDS011;592;48.764;9.174;2023-05-14T02:16:51;14.83;;;12.30;;
1204;SDS011;592;48.764;9.174;2023-05-14T02:19:18;14.20;;;12.33;;
1204;SDS011;592;48.764;9.174;2023-05-14T02:21:45;13.70;;;11.97;;
1204;SDS011;592;48.764;9.174;2023-05-14T02:24:12;14.10;;;11.90;;
1204;SDS011;592;48.764;9.174;2023-05-14T02:26:38;14.27;;;10.70;;
1204;SDS011;592;48.764;9.174;2023-05-14T02:29:06;14.50;;;11.13;;
1204;SDS011;592;48.764;9.174;2023-05-14T02:31:34;13.43;;;11.07;;
1204;SDS011;592;48.764;9.174;2023-05-14T02:34:01;15.07;;;12.20;;
1204;SDS011;592;48.764;9.174;2023-05-14T02:36:29;16.60;;;13.07;;
1204;SDS011;592;48.764;9.174;2023-05-14T02:38:57;15.77;;;12.03;;
1204;SDS011;592;48.764;9.174;2023-05-14T02:41:24;15.20;;;11.77;;
1204;SDS011;592;48.764;9.174;2023-05-14T02:43:51;14.43;;;12.07;;
1204;SDS011;592;48.764;9.174;2023-05-14T02:46:18;13.80;;;12.03;;
1204;SDS011;592;48.764;9.174;2023-05-14T02:48:46;13.47;;;11.83;;
1204;SDS011;592;48.764;9.174;2023-05-14T02:51:13;13.47;;;11.03;;
1204;SDS011;592;48.764;9.174;2023-05-14T02:53:40;15.13;;;12.80;;
1204;SDS011;592;48.764;9.174;2023-05-14T02:56:07;14.17;;;11.83;;
1204;SDS011;592;48.764;9.174;2023-05-14T02:58:33;13.93;;;11.60;;
1204;SDS011;592;48.764;9.174;2023-05-14T03:01:00;13.90;;;11.27;;
1204;SDS011;592;48.764;9.174;2023-05-14T03:03:27;15.07;;;13.23;;
1204;SDS011;592;48.764;9.174;2023-05-14T03:05:55;12.87;;;11.00;;
1204;SDS011;592;48.764;9.174;2023-05-14T03:08:22;13.57;;;11.20;;
1204;SDS011;592;48.764;9.174;2023-05-14T03:10:49;14.30;;;11.73;;
1204;SDS011;592;48.764;9.174;2023-05-14T03:13:16;14.50;;;11.90;;
1204;SDS011;592;48.764;9.174;2023-05-14T03:15:44;12.43;;;10.50;;
1204;SDS011;592;48.764;9.174;2023-05-14T03:18:12;13.70;;;11.67;;
1204;SDS011;592;48.764;9.174;2023-05-14T03:20:39;15.30;;;11.10;;
1204;SDS011;592;48.764;9.174;2023-05-14T03:23:07;14.03;;;11.20;;
1204;SDS011;592;48.764;9.174;2023-05-14T03:25:34;13.50;;;11.10;;
1204;SDS011;592;48.764;9.174;2023-05-14T03:28:01;16.60;;;11.77;;
1204;SDS011;592;48.764;9.174;2023-05-14T03:30:28;12.47;;;11.00;;
1204;SDS011;592;48.764;9.174;2023-05-14T03:32:55;14.13;;;11.73;;
1204;SDS011;592;48.764;9.174;2023-05-14T03:35:22;11.80;;;10.30;;
1204;SDS011;592;48.764;9.174;2023-05-14T03:37:48;13.53;;;10.43;;
1204;SDS011;592;48.764;9.174;2023-05-14T03:40:18;14.57;;;10.93;;
1204;SDS011;592;48.764;9.174;2023-05-14T03:42:45;12.70;;;10.30;;
1204;SDS011;592;48.764;9.174;2023-05-14T03:45:11;15.60;;;11.30;;
1204;SDS011;592;48.764;9.174;2023-05-14T03:47:38;13.00;;;11.60;;
1204;SDS011;592;48.764;9.174;2023-05-14T03:50:05;12.33;;;10.30;;
1204;SDS011;592;48.764;9.174;2023-05-14T03:52:33;16.77;;;12.47;;
1204;SDS011;592;48.764;9.174;2023-05-14T03:55:00;16.27;;;13.47;;
1204;SDS011;592;48.764;9.174;2023-05-14T03:57:28;13.40;;;11.23;;
1204;SDS011;592;48.764;9.174;2023-05-14T03:59:54;16.00;;;13.20;;
1204;SDS011;592;48.764;9.174;2023-05-14T04:02:21;14.73;;;11.97;;
1204;SDS011;592;48.764;9.174;2023-05-14T04:04:48;17.33;;;11.97;;
1204;SDS011;592;48.764;9.174;2023-05-14T04:07:14;15.40;;;12.90;;
1204;SDS011;592;48.764;9.174;2023-05-14T04:09:41;15.70;;;12.33;;
1204;SDS011;592;48.764;9.174;2023-05-14T04:12:08;15.73;;;11.87;;
1204;SDS011;592;48.764;9.174;2023-05-14T04:14:36;15.50;;;11.93;;
1204;SDS011;592;48.764;9.174;2023-05-14T04:17:03;16.13;;;12.63;;
1204;SDS011;592;48.764;9.174;2023-05-14T04:19:29;14.37;;;12.57;;
1204;SDS011;592;48.764;9.174;2023-05-14T04:21:56;15.47;;;11.90;;
1204;SDS011;592;48.764;9.174;2023-05-14T04:24:23;16.67;;;12.50;;
1204;SDS011;592;48.764;9.174;2023-05-14T04:26:50;14.83;;;11.77;;
1204;SDS011;592;48.764;9.174;2023-05-14T04:29:16;16.27;;;12.33;;
1204;SDS011;592;48.764;9.174;2023-05-14T04:31:44;18.97;;;11.20;;
1204;SDS011;592;48.764;9.174;2023-05-14T04:34:11;14.77;;;12.57;;
1204;SDS011;592;48.764;9.174;2023-05-14T04:36:38;14.30;;;12.40;;
1204;SDS011;592;48.764;9.174;2023-05-14T04:39:05;15.67;;;13.00;;
1204;SDS011;592;48.764;9.174;2023-05-14T04:41:33;17.43;;;13.17;;
1204;SDS011;592;48.764;9.174;2023-05-14T04:44:01;15.00;;;12.30;;
1204;SDS011;592;48.764;9.174;2023-05-14T04:46:28;18.30;;;13.53;;
1204;SDS011;592;48.764;9.174;2023-05-14T04:48:56;15.60;;;11.70;;
1204;SDS011;592;48.764;9.174;2023-05-14T04:51:23;14.20;;;11.53;;
1204;SDS011;592;48.764;9.174;2023-05-14T04:53:50;14.93;;;11.70;;
1204;SDS011;592;48.764;9.174;2023-05-14T04:56:17;14.40;;;12.00;;
1204;SDS011;592;48.764;9.174;2023-05-14T04:58:43;16.10;;;12.50;;
1204;SDS011;592;48.764;9.174;2023-05-14T05:01:10;15.53;;;11.87;;
1204;SDS011;592;48.764;9.174;2023-05-14T05:03:37;16.13;;;12.40;;
1204;SDS011;592;48.764;9.174;2023-05-14T05:06:05;15.77;;;11.90;;
1204;SDS011;592;48.764;9.174;2023-05-14T05:08:32;14.43;;;11.37;;
1204;SDS011;592;48.764;9.174;2023-05-14T05:10:59;14.20;;;11.80;;
1204;SDS011;592;48.764;9.174;2023-05-14T05:13:25;13.30;;;11.50;;
1204;SDS011;592;48.764;9.174;2023-05-14T05:15:52;14.87;;;11.20;;
1204;SDS011;592;48.764;9.174;2023-05-14T05:18:18;17.83;;;12.57;;
1204;SDS011;592;48.764;9.174;2023-05-14T05:20:45;15.60;;;12.60;;
1204;SDS011;592;48.764;9.174;2023-05-14T05:23:13;15.73;;;12.10;;
1204;SDS011;592;48.764;9.174;2023-05-14T05:25:40;21.43;;;12.10;;
1204;SDS011;592;48.764;9.174;2023-05-14T05:28:06;14.50;;;12.03;;
1204;SDS011;592;48.764;9.174;2023-05-14T05:30:33;15.97;;;12.13;;
1204;SDS011;592;48.764;9.174;2023-05-14T05:33:00;16.63;;;13.33;;
1204;SDS011;592;48.764;9.174;2023-05-14T05:35:26;17.27;;;12.23;;
1204;SDS011;592;48.764;9.174;2023-05-14T05:37:53;15.50;;;12.70;;
1204;SDS011;592;48.764;9.174;2023-05-14T05:40:21;15.03;;;11.50;;
1204;SDS011;592;48.764;9.174;2023-05-14T05:42:48;15.30;;;11.50;;
1204;SDS011;592;48.764;9.174;2023-05-14T05:45:14;14.87;;;12.00;;
1204;SDS011;592;48.764;9.174;2023-05-14T05:47:41;13.90;;;11.63;;
1204;SDS011;592;48.764;9.174;2023-05-14T05:50:09;15.20;;;12.20;;
1204;SDS011;592;48.764;9.174;2023-05-14T05:52:36;17.67;;;11.93;;
1204;SDS011;592;48.764;9.174;2023-05-14T05:55:03;14.23;;;11.53;;
1204;SDS011;592;48.764;9.174;2023-05-14T05:57:32;16.70;;;12.43;;
1204;SDS011;592;48.764;9.174;2023-05-14T05:59:58;16.07;;;12.53;;
1204;SDS011;592;48.764;9.174;2023-05-14T06:02:31;17.47;;;11.90;;
1204;SDS011;592;48.764;9.174;2023-05-14T06:04:58;15.80;;;12.60;;
1204;SDS011;592;48.764;9.174;2023-05-14T06:07:25;17.73;;;11.93;;
1204;SDS011;592;48.764;9.174;2023-05-14T06:09:52;17.53;;;12.23;;
1204;SDS011;592;48.764;9.174;2023-05-14T06:12:18;15.30;;;12.17;;
1204;SDS011;592;48.764;9.174;2023-05-14T06:14:47;14.70;;;12.60;;
1204;SDS011;592;48.764;9.174;2023-05-14T06:17:13;16.60;;;12.50;;
1204;SDS011;592;48.764;9.174;2023-05-14T06:19:40;15.30;;;11.83;;
1204;SDS011;592;48.764;9.174;2023-05-14T06:22:07;16.57;;;12.23;;
1204;SDS011;592;48.764;9.174;2023-05-14T06:24:33;16.40;;;12.73;;
1204;SDS011;592;48.764;9.174;2023-05-14T06:27:00;17.67;;;12.60;;
1204;SDS011;592;48.764;9.174;2023-05-14T06:29:27;15.37;;;12.70;;
1204;SDS011;592;48.764;9.174;2023-05-14T06:31:55;16.50;;;12.43;;
1204;SDS011;592;48.764;9.174;2023-05-14T06:34:26;16.30;;;13.40;;
1204;SDS011;592;48.764;9.174;2023-05-14T06:36:52;14.33;;;12.07;;
1204;SDS011;592;48.764;9.174;2023-05-14T06:39:19;17.33;;;12.77;;
1204;SDS011;592;48.764;9.174;2023-05-14T06:41:46;15.50;;;12.17;;
1204;SDS011;592;48.764;9.174;2023-05-14T06:44:12;18.13;;;13.20;;
1204;SDS011;592;48.764;9.174;2023-05-14T06:46:39;14.80;;;11.30;;
1204;SDS011;592;48.764;9.174;2023-05-14T06:49:07;16.10;;;12.07;;
1204;SDS011;592;48.764;9.174;2023-05-14T06:51:33;15.77;;;12.07;;
1204;SDS011;592;48.764;9.174;2023-05-14T06:54:00;16.20;;;12.80;;
1204;SDS011;592;48.764;9.174;2023-05-14T06:56:27;14.57;;;11.00;;
1204;SDS011;592;48.764;9.174;2023-05-14T06:58:53;17.23;;;13.03;;
1204;SDS011;592;48.764;9.174;2023-05-14T07:01:20;16.47;;;12.83;;
1204;SDS011;592;48.764;9.174;2023-05-14T07:03:47;14.97;;;11.63;;
1204;SDS011;592;48.764;9.174;2023-05-14T07:06:15;15.00;;;12.90;;
1204;SDS011;592;48.764;9.174;2023-05-14T07:08:42;15.87;;;12.27;;
1204;SDS011;592;48.764;9.174;2023-05-14T07:11:10;15.33;;;12.50;;
1204;SDS011;592;48.764;9.174;2023-05-14T07:13:37;14.77;;;11.93;;
1204;SDS011;592;48.764;9.174;2023-05-14T07:16:04;17.70;;;13.00;;
1204;SDS011;592;48.764;9.174;2023-05-14T07:18:31;15.93;;;12.77;;
1204;SDS011;592;48.764;9.174;2023-05-14T07:20:58;14.80;;;12.37;;
1204;SDS011;592;48.764;9.174;2023-05-14T07:23:26;17.10;;;12.83;;
1204;SDS011;592;48.764;9.174;2023-05-14T07:25:53;17.97;;;13.03;;
1204;SDS011;592;48.764;9.174;2023-05-14T07:28:19;16.30;;;12.40;;
1204;SDS011;592;48.764;9.174;2023-05-14T07:30:46;14.83;;;11.83;;
1204;SDS011;592;48.764;9.174;2023-05-14T07:33:13;17.20;;;11.83;;
1204;SDS011;592;48.764;9.174;2023-05-14T07:35:39;16.50;;;12.97;;
1204;SDS011;592;48.764;9.174;2023-05-14T07:38:06;15.70;;;12.00;;
1204;SDS011;592;48.764;9.174;2023-05-14T07:40:34;15.80;;;12.70;;
1204;SDS011;592;48.764;9.174;2023-05-14T07:43:01;17.30;;;13.77;;
1204;SDS011;592;48.764;9.174;2023-05-14T07:45:27;16.53;;;11.90;;
1204;SDS011;592;48.764;9.174;2023-05-14T07:47:54;15.20;;;12.27;;
1204;SDS011;592;48.764;9.174;2023-05-14T07:50:21;16.53;;;13.40;;
1204;SDS011;592;48.764;9.174;2023-05-14T07:52:48;16.80;;;12.90;;
1204;SDS011;592;48.764;9.174;2023-05-14T07:55:14;16.80;;;13.93;;
1204;SDS011;592;48.764;9.174;2023-05-14T07:57:42;14.50;;;12.10;;
1204;SDS011;592;48.764;9.174;2023-05-14T08:00:10;15.43;;;11.47;;
1204;SDS011;592;48.764;9.174;2023-05-14T08:02:37;15.00;;;13.03;;
1204;SDS011;592;48.764;9.174;2023-05-14T08:05:04;15.13;;;12.67;;
1204;SDS011;592;48.764;9.174;2023-05-14T08:07:31;16.97;;;12.90;;
1204;SDS011;592;48.764;9.174;2023-05-14T08:09:58;14.17;;;12.67;;
1204;SDS011;592;48.764;9.174;2023-05-14T08:12:25;15.27;;;12.30;;
1204;SDS011;592;48.764;9.174;2023-05-14T08:14:54;15.10;;;12.37;;
1204;SDS011;592;48.764;9.174;2023-05-14T08:17:21;17.87;;;13.17;;
1204;SDS011;592;48.764;9.174;2023-05-14T08:19:47;16.10;;;12.90;;
1204;SDS011;592;48.764;9.174;2023-05-14T08:22:14;15.93;;;13.37;;
1204;SDS011;592;48.764;9.174;2023-05-14T08:24:41;16.20;;;11.90;;
1204;SDS011;592;48.764;9.174;2023-05-14T08:27:07;16.40;;;13.13;;
1204;SDS011;592;48.764;9.174;2023-05-14T08:29:34;14.17;;;12.40;;
1204;SDS011;592;48.764;9.174;2023-05-14T08:32:02;16.97;;;12.80;;
1204;SDS011;592;48.764;9.174;2023-05-14T08:34:30;14.90;;;12.27;;
1204;SDS011;592;48.764;9.174;2023-05-14T08:36:56;16.33;;;13.53;;
1204;SDS011;592;48.764;9.174;2023-05-14T08:39:23;18.17;;;12.03;;
1204;SDS011;592;48.764;9.174;2023-05-14T08:41:50;14.47;;;11.80;;
1204;SDS011;592;48.764;9.174;2023-05-14T08:44:17;16.93;;;12.63;;
1204;SDS011;592;48.764;9.174;2023-05-14T08:46:45;16.13;;;12.77;;
1204;SDS011;592;48.764;9.174;2023-05-14T08:49:18;15.47;;;13.07;;
1204;SDS011;592;48.764;9.174;2023-05-14T08:51:54;14.97;;;12.10;;
1204;SDS011;592;48.764;9.174;2023-05-14T08:54:21;15.70;;;12.70;;
1204;SDS011;592;48.764;9.174;2023-05-14T08:56:50;17.43;;;12.70;;
1204;SDS011;592;48.764;9.174;2023-05-14T08:59:17;16.03;;;13.37;;
1204;SDS011;592;48.764;9.174;2023-05-14T09:01:45;15.10;;;12.60;;
1204;SDS011;592;48.764;9.174;2023-05-14T09:04:13;15.90;;;12.50;;
1204;SDS011;592;48.764;9.174;2023-05-14T09:06:44;16.20;;;13.17;;
1204;SDS011;592;48.764;9.174;2023-05-14T09:09:14;16.50;;;12.87;;
1204;SDS011;592;48.764;9.174;2023-05-14T09:11:41;17.03;;;13.83;;
1204;SDS011;592;48.764;9.174;2023-05-14T09:14:08;17.13;;;13.47;;
1204;SDS011;592;48.764;9.174;2023-05-14T09:16:35;18.60;;;13.97;;
1204;SDS011;592;48.764;9.174;2023-05-14T09:19:02;15.40;;;12.50;;
1204;SDS011;592;48.764;9.174;2023-05-14T09:21:30;17.37;;;13.27;;
1204;SDS011;592;48.764;9.174;2023-05-14T09:23:57;17.23;;;14.17;;
1204;SDS011;592;48.764;9.174;2023-05-14T09:26:24;16.70;;;13.30;;
1204;SDS011;592;48.764;9.174;2023-05-14T09:28:52;15.70;;;12.80;;
1204;SDS011;592;48.764;9.174;2023-05-14T09:31:20;14.97;;;12.73;;
1204;SDS011;592;48.764;9.174;2023-05-14T09:33:48;15.63;;;13.50;;
1204;SDS011;592;48.764;9.174;2023-05-14T09:36:15;16.13;;;12.97;;
1204;SDS011;592;48.764;9.174;2023-05-14T09:38:44;16.60;;;13.50;;
1204;SDS011;592;48.764;9.174;2023-05-14T09:41:11;15.30;;;12.63;;
1204;SDS011;592;48.764;9.174;2023-05-14T09:43:37;13.60;;;11.07;;
1204;SDS011;592;48.764;9.174;2023-05-14T09:46:04;20.03;;;13.00;;
1204;SDS011;592;48.764;9.174;2023-05-14T09:48:31;18.80;;;15.00;;
1204;SDS011;592;48.764;9.174;2023-05-14T09:50:58;16.10;;;12.87;;
1204;SDS011;592;48.764;9.174;2023-05-14T09:53:24;16.23;;;11.83;;
1204;SDS011;592;48.764;9.174;2023-05-14T09:55:52;17.07;;;11.90;;
1204;SDS011;592;48.764;9.174;2023-05-14T09:58:19;14.93;;;11.60;;
1204;SDS011;592;48.764;9.174;2023-05-14T10:00:46;16.13;;;12.90;;
1204;SDS011;592;48.764;9.174;2023-05-14T10:03:13;15.93;;;12.00;;
1204;SDS011;592;48.764;9.174;2023-05-14T10:05:40;15.70;;;13.77;;
1204;SDS011;592;48.764;9.174;2023-05-14T10:08:08;15.83;;;13.07;;
1204;SDS011;592;48.764;9.174;2023-05-14T10:10:38;17.27;;;13.53;;
1204;SDS011;592;48.764;9.174;2023-05-14T10:13:07;19.80;;;12.10;;
1204;SDS011;592;48.764;9.174;2023-05-14T10:15:38;14.40;;;11.23;;
1204;SDS011;592;48.764;9.174;2023-05-14T10:18:09;14.60;;;11.90;;
1204;SDS011;592;48.764;9.174;2023-05-14T10:20:37;13.67;;;11.17;;
1204;SDS011;592;48.764;9.174;2023-05-14T10:23:06;15.20;;;11.50;;
1204;SDS011;592;48.764;9.174;2023-05-14T10:25:32;14.70;;;11.30;;
1204;SDS011;592;48.764;9.174;2023-05-14T10:28:00;12.20;;;10.20;;
1204;SDS011;592;48.764;9.174;2023-05-14T10:30:28;12.90;;;9.80;;
1204;SDS011;592;48.764;9.174;2023-05-14T10:33:06;13.80;;;9.70;;
1204;SDS011;592;48.764;9.174;2023-05-14T10:38:29;12.43;;;9.73;;
1204;SDS011;592;48.764;9.174;2023-05-14T10:40:59;12.93;;;9.47;;
1204;SDS011;592;48.764;9.174;2023-05-14T10:43:27;15.70;;;10.07;;
1204;SDS011;592;48.764;9.174;2023-05-14T10:45:56;13.33;;;10.27;;
1204;SDS011;592;48.764;9.174;2023-05-14T10:48:23;13.40;;;10.17;;
1204;SDS011;592;48.764;9.174;2023-05-14T10:50:51;12.40;;;10.30;;
1204;SDS011;592;48.764;9.174;2023-05-14T10:53:18;10.77;;;8.87;;
1204;SDS011;592;48.764;9.174;2023-05-14T10:55:46;10.13;;;9.03;;
1204;SDS011;592;48.764;9.174;2023-05-14T10:58:13;12.17;;;9.90;;
1204;SDS011;592;48.764;9.174;2023-05-14T11:00:40;13.67;;;11.07;;
1204;SDS011;592;48.764;9.174;2023-05-14T11:03:08;11.50;;;9.33;;
1204;SDS011;592;48.764;9.174;2023-05-14T11:05:37;13.03;;;10.90;;
1204;SDS011;592;48.764;9.174;2023-05-14T11:08:05;15.63;;;10.70;;
1204;SDS011;592;48.764;9.174;2023-05-14T11:10:34;13.70;;;10.27;;
1204;SDS011;592;48.764;9.174;2023-05-14T11:13:01;12.27;;;9.47;;
1204;SDS011;592;48.764;9.174;2023-05-14T11:15:27;11.63;;;9.13;;
1204;SDS011;592;48.764;9.174;2023-05-14T11:17:54;14.70;;;9.20;;
1204;SDS011;592;48.764;9.174;2023-05-14T11:20:22;13.37;;;11.40;;
1204;SDS011;592;48.764;9.174;2023-05-14T11:22:49;13.80;;;11.57;;
1204;SDS011;592;48.764;9.174;2023-05-14T11:25:16;14.07;;;11.30;;
1204;SDS011;592;48.764;9.174;2023-05-14T11:27:44;15.43;;;11.97;;
1204;SDS011;592;48.764;9.174;2023-05-14T11:30:12;13.80;;;11.73;;
1204;SDS011;592;48.764;9.174;2023-05-14T11:32:39;14.07;;;11.80;;
1204;SDS011;592;48.764;9.174;2023-05-14T11:35:07;13.90;;;12.10;;
1204;SDS011;592;48.764;9.174;2023-05-14T11:37:35;13.90;;;11.20;;
1204;SDS011;592;48.764;9.174;2023-05-14T11:40:05;12.87;;;10.37;;
1204;SDS011;592;48.764;9.174;2023-05-14T11:42:33;11.93;;;9.33;;
1204;SDS011;592;48.764;9.174;2023-05-14T11:45:00;11.30;;;9.60;;
1204;SDS011;592;48.764;9.174;2023-05-14T11:47:28;13.00;;;10.17;;
1204;SDS011;592;48.764;9.174;2023-05-14T11:49:55;11.97;;;9.27;;
1204;SDS011;592;48.764;9.174;2023-05-14T11:52:21;12.17;;;10.07;;
1204;SDS011;592;48.764;9.174;2023-05-14T11:54:49;13.47;;;10.83;;
1204;SDS011;592;48.764;9.174;2023-05-14T11:57:17;12.10;;;10.33;;
1204;SDS011;592;48.764;9.174;2023-05-14T11:59:45;11.17;;;9.60;;
1204;SDS011;592;48.764;9.174;2023-05-14T12:02:13;11.80;;;9.53;;
1204;SDS011;592;48.764;9.174;2023-05-14T12:04:41;12.27;;;9.37;;
1204;SDS011;592;48.764;9.174;2023-05-14T12:07:09;11.00;;;9.30;;
1204;SDS011;592;48.764;9.174;2023-05-14T12:09:37;14.10;;;9.50;;
1204;SDS011;592;48.764;9.174;2023-05-14T12:12:09;11.63;;;10.20;;
1204;SDS011;592;48.764;9.174;2023-05-14T12:14:37;12.07;;;9.67;;
1204;SDS011;592;48.764;9.174;2023-05-14T12:17:10;12.03;;;9.10;;
1204;SDS011;592;48.764;9.174;2023-05-14T12:19:38;10.30;;;8.83;;
1204;SDS011;592;48.764;9.174;2023-05-14T12:22:06;10.90;;;8.53;;
1204;SDS011;592;48.764;9.174;2023-05-14T12:24:33;17.17;;;10.00;;
1204;SDS011;592;48.764;9.174;2023-05-14T12:27:00;11.00;;;9.37;;
1204;SDS011;592;48.764;9.174;2023-05-14T12:29:29;11.40;;;8.87;;
1204;SDS011;592;48.764;9.174;2023-05-14T12:31:56;10.70;;;8.37;;
1204;SDS011;592;48.764;9.174;2023-05-14T12:34:23;8.13;;;7.07;;
1204;SDS011;592;48.764;9.174;2023-05-14T12:36:50;9.40;;;7.67;;
1204;SDS011;592;48.764;9.174;2023-05-14T12:39:16;10.70;;;7.90;;
1204;SDS011;592;48.764;9.174;2023-05-14T12:41:43;9.23;;;7.30;;
1204;SDS011;592;48.764;9.174;2023-05-14T12:44:10;12.03;;;9.10;;
1204;SDS011;592;48.764;9.174;2023-05-14T12:46:38;9.70;;;8.10;;
1204;SDS011;592;48.764;9.174;2023-05-14T12:49:04;7.90;;;6.37;;
1204;SDS011;592;48.764;9.174;2023-05-14T12:51:32;9.50;;;6.43;;
1204;SDS011;592;48.764;9.174;2023-05-14T12:53:59;9.90;;;7.77;;
1204;SDS011;592;48.764;9.174;2023-05-14T12:56:26;9.30;;;7.30;;
1204;SDS011;592;48.764;9.174;2023-05-14T12:58:54;8.90;;;7.60;;
1204;SDS011;592;48.764;9.174;2023-05-14T13:01:21;11.80;;;8.10;;
1204;SDS011;592;48.764;9.174;2023-05-14T13:03:50;9.70;;;7.83;;
1204;SDS011;592;48.764;9.174;2023-05-14T13:06:16;9.23;;;7.03;;
1204;SDS011;592;48.764;9.174;2023-05-14T13:08:43;9.70;;;8.40;;
1204;SDS011;592;48.764;9.174;2023-05-14T13:11:11;9.10;;;6.67;;
1204;SDS011;592;48.764;9.174;2023-05-14T13:13:37;9.33;;;7.60;;
1204;SDS011;592;48.764;9.174;2023-05-14T13:16:04;11.03;;;7.83;;
1204;SDS011;592;48.764;9.174;2023-05-14T13:18:31;10.50;;;7.50;;
1204;SDS011;592;48.764;9.174;2023-05-14T13:20:59;9.13;;;6.83;;
1204;SDS011;592;48.764;9.174;2023-05-14T13:23:30;7.90;;;5.80;;
1204;SDS011;592;48.764;9.174;2023-05-14T13:25:56;7.97;;;6.67;;
1204;SDS011;592;48.764;9.174;2023-05-14T13:28:23;8.60;;;6.77;;
1204;SDS011;592;48.764;9.174;2023-05-14T13:31:03;7.90;;;6.50;;
1204;SDS011;592;48.764;9.174;2023-05-14T13:33:31;8.00;;;6.40;;
1204;SDS011;592;48.764;9.174;2023-05-14T13:36:00;8.30;;;6.80;;
1204;SDS011;592;48.764;9.174;2023-05-14T13:38:27;8.73;;;6.90;;
1204;SDS011;592;48.764;9.174;2023-05-14T13:40:54;8.40;;;6.70;;
1204;SDS011;592;48.764;9.174;2023-05-14T13:43:26;9.03;;;6.70;;
1204;SDS011;592;48.764;9.174;2023-05-14T13:45:53;7.70;;;6.50;;
1204;SDS011;592;48.764;9.174;2023-05-14T13:48:19;9.30;;;7.33;;
1204;SDS011;592;48.764;9.174;2023-05-14T13:50:46;9.33;;;6.90;;
1204;SDS011;592;48.764;9.174;2023-05-14T13:53:14;9.60;;;7.43;;
1204;SDS011;592;48.764;9.174;2023-05-14T13:55:41;9.73;;;7.23;;
1204;SDS011;592;48.764;9.174;2023-05-14T13:58:08;8.40;;;7.27;;
1204;SDS011;592;48.764;9.174;2023-05-14T14:00:34;7.17;;;6.13;;
1204;SDS011;592;48.764;9.174;2023-05-14T14:03:01;7.87;;;6.60;;
1204;SDS011;592;48.764;9.174;2023-05-14T14:05:28;9.90;;;7.60;;
1204;SDS011;592;48.764;9.174;2023-05-14T14:07:55;9.63;;;7.40;;
1204;SDS011;592;48.764;9.174;2023-05-14T14:10:23;8.60;;;7.20;;
1204;SDS011;592;48.764;9.174;2023-05-14T14:12:50;7.90;;;6.80;;
1204;SDS011;592;48.764;9.174;2023-05-14T14:15:17;9.43;;;7.30;;
1204;SDS011;592;48.764;9.174;2023-05-14T14:17:44;8.30;;;7.17;;
1204;SDS011;592;48.764;9.174;2023-05-14T14:20:11;8.40;;;7.17;;
1204;SDS011;592;48.764;9.174;2023-05-14T14:22:38;11.13;;;7.07;;
1204;SDS011;592;48.764;9.174;2023-05-14T14:25:05;9.00;;;6.40;;
1204;SDS011;592;48.764;9.174;2023-05-14T14:27:33;8.43;;;6.40;;
1204;SDS011;592;48.764;9.174;2023-05-14T14:30:02;9.30;;;6.70;;
1204;SDS011;592;48.764;9.174;2023-05-14T14:32:30;10.73;;;6.23;;
1204;SDS011;592;48.764;9.174;2023-05-14T14:34:57;6.50;;;5.37;;
1204;SDS011;592;48.764;9.174;2023-05-14T14:37:24;7.43;;;5.93;;
1204;SDS011;592;48.764;9.174;2023-05-14T14:39:51;10.13;;;5.70;;
1204;SDS011;592;48.764;9.174;2023-05-14T14:42:17;7.43;;;5.60;;
1204;SDS011;592;48.764;9.174;2023-05-14T14:44:45;8.07;;;5.80;;
1204;SDS011;592;48.764;9.174;2023-05-14T14:47:12;7.77;;;6.40;;
1204;SDS011;592;48.764;9.174;2023-05-14T14:49:38;7.47;;;5.67;;
1204;SDS011;592;48.764;9.174;2023-05-14T14:52:05;9.57;;;6.30;;
1204;SDS011;592;48.764;9.174;2023-05-14T14:54:33;8.13;;;5.93;;
1204;SDS011;592;48.764;9.174;2023-05-14T14:57:00;8.10;;;5.77;;
1204;SDS011;592;48.764;9.174;2023-05-14T14:59:26;7.90;;;6.00;;
1204;SDS011;592;48.764;9.174;2023-05-14T15:01:54;7.30;;;5.30;;
1204;SDS011;592;48.764;9.174;2023-05-14T15:04:21;7.50;;;5.77;;
1204;SDS011;592;48.764;9.174;2023-05-14T15:06:48;6.47;;;5.47;;
1204;SDS011;592;48.764;9.174;2023-05-14T15:09:14;6.90;;;4.93;;
1204;SDS011;592;48.764;9.174;2023-05-14T15:11:41;6.03;;;4.80;;